Time;durP1;ratioP1;P1;durP2;ratioP2;P2;SDS_P1;SDS_P2;PMS_P1;PMS_P2;Temp;Humidity;BMP_temperature;BMP_pressure;BME280_temperature;BME280_humidity;BME280_pressure;Samples;Min_cycle;Max_cycle;Signal;HPM_P1;HPM_P2
2022/03/19 00:00:33;;;;;;;36.13;26.73;;;5.40;99.90;;;;;;5066605;28;20557;-76
2022/03/19 00:02:58;;;;;;;36.07;27.23;;;5.30;99.90;;;;;;5068059;28;20258;-76
2022/03/19 00:05:24;;;;;;;35.00;26.83;;;5.30;99.90;;;;;;5067860;28;20298;-75
2022/03/19 00:07:50;;;;;;;37.17;29.23;;;5.30;99.90;;;;;;5065157;28;20167;-75
2022/03/19 00:10:17;;;;;;;39.53;29.97;;;5.20;99.90;;;;;;5068936;28;20197;-76
2022/03/19 00:12:43;;;;;;;37.97;30.23;;;5.20;99.90;;;;;;5065441;28;20183;-76
2022/03/19 00:15:10;;;;;;;39.17;29.73;;;5.10;99.90;;;;;;5065830;28;20311;-76
2022/03/19 00:17:35;;;;;;;42.47;30.97;;;5.10;99.90;;;;;;5069596;28;20220;-76
2022/03/19 00:20:02;;;;;;;37.47;30.37;;;5.10;99.90;;;;;;5083760;28;20272;-76
2022/03/19 00:22:27;;;;;;;36.50;29.23;;;5.00;99.90;;;;;;5067103;28;20206;-76
2022/03/19 00:24:53;;;;;;;39.97;30.07;;;5.00;99.90;;;;;;5066926;28;20206;-76
2022/03/19 00:27:19;;;;;;;41.30;29.67;;;5.00;99.90;;;;;;5069594;28;20187;-75
2022/03/19 00:29:45;;;;;;;40.27;30.17;;;4.90;99.90;;;;;;5069307;28;20179;-76
2022/03/19 00:32:11;;;;;;;37.97;28.50;;;4.90;99.90;;;;;;5066211;28;20654;-76
2022/03/19 00:34:36;;;;;;;38.47;30.47;;;4.80;99.90;;;;;;5070975;28;20212;-75
2022/03/19 00:37:02;;;;;;;39.80;31.33;;;4.80;99.90;;;;;;5067735;28;20179;-75
2022/03/19 00:39:28;;;;;;;37.67;29.87;;;4.80;99.90;;;;;;5066743;28;20183;-75
2022/03/19 00:41:54;;;;;;;41.83;30.43;;;4.80;99.90;;;;;;5066630;28;20187;-75
2022/03/19 00:44:23;;;;;;;37.23;29.27;;;4.80;99.90;;;;;;5069701;28;20195;-75
2022/03/19 00:46:49;;;;;;;38.70;30.70;;;4.70;99.90;;;;;;5068631;28;20680;-76
2022/03/19 00:49:15;;;;;;;37.40;28.37;;;4.70;99.90;;;;;;5065438;28;20172;-75
2022/03/19 00:51:41;;;;;;;39.37;28.97;;;4.70;99.90;;;;;;5064285;28;20175;-74
2022/03/19 00:54:07;;;;;;;32.83;25.67;;;4.70;99.90;;;;;;5066327;28;20275;-75
2022/03/19 00:56:34;;;;;;;30.93;24.60;;;4.80;99.90;;;;;;5068644;28;20179;-74
2022/03/19 00:59:00;;;;;;;32.13;24.73;;;4.80;99.90;;;;;;5062492;28;20271;-76
2022/03/19 01:01:26;;;;;;;30.43;23.33;;;4.80;99.90;;;;;;5064833;28;20667;-76
2022/03/19 01:03:52;;;;;;;29.10;22.53;;;4.80;99.90;;;;;;5071113;28;20195;-77
2022/03/19 01:06:17;;;;;;;30.77;24.10;;;4.80;99.90;;;;;;5066295;28;20215;-76
2022/03/19 01:08:43;;;;;;;27.27;23.30;;;4.80;99.90;;;;;;5070271;28;20268;-76
2022/03/19 01:11:09;;;;;;;32.27;25.37;;;4.90;99.90;;;;;;5064792;28;20179;-76
2022/03/19 01:13:35;;;;;;;30.70;23.57;;;4.80;99.90;;;;;;5067037;28;20725;-75
2022/03/19 01:16:02;;;;;;;31.07;24.67;;;4.70;99.90;;;;;;5069088;28;20183;-75
2022/03/19 01:18:28;;;;;;;31.83;24.53;;;4.60;99.90;;;;;;5069422;28;20184;-76
2022/03/19 01:20:53;;;;;;;30.90;23.90;;;4.60;99.90;;;;;;5069261;28;20605;-76
2022/03/19 01:23:19;;;;;;;28.87;23.73;;;4.60;99.90;;;;;;5069609;28;20190;-76
2022/03/19 01:25:45;;;;;;;34.20;25.00;;;4.60;99.90;;;;;;5069998;28;20242;-76
2022/03/19 01:28:10;;;;;;;32.63;25.20;;;4.60;99.90;;;;;;5070810;28;20651;-75
2022/03/19 01:30:36;;;;;;;34.33;26.47;;;4.60;99.90;;;;;;5089755;28;20240;-75
2022/03/19 01:33:02;;;;;;;33.70;26.90;;;4.60;99.90;;;;;;5067809;28;20203;-76
2022/03/19 01:35:27;;;;;;;31.93;24.40;;;4.50;99.90;;;;;;5068687;28;20206;-76
2022/03/19 01:37:53;;;;;;;34.50;26.67;;;4.50;99.90;;;;;;5071083;28;20240;-76
2022/03/19 01:40:19;;;;;;;31.37;25.33;;;4.50;99.90;;;;;;5071758;28;20193;-76
2022/03/19 01:42:48;;;;;;;31.90;24.90;;;4.50;99.90;;;;;;5065407;28;20187;-75
2022/03/19 01:45:19;;;;;;;35.03;25.50;;;4.50;99.90;;;;;;5071663;28;20215;-75
2022/03/19 01:47:47;;;;;;;32.00;26.33;;;4.40;99.90;;;;;;5068050;28;20180;-75
2022/03/19 01:50:13;;;;;;;34.43;24.30;;;4.40;99.90;;;;;;5068040;28;20176;-75
2022/03/19 01:52:40;;;;;;;31.27;23.53;;;4.40;99.90;;;;;;5069017;28;20179;-76
2022/03/19 01:55:06;;;;;;;31.37;23.60;;;4.40;99.90;;;;;;5069955;28;20230;-76
2022/03/19 01:57:37;;;;;;;30.33;23.73;;;4.40;99.90;;;;;;5068015;28;20260;-75
2022/03/19 02:00:04;;;;;;;33.13;25.10;;;4.40;99.90;;;;;;5069657;28;20183;-75
2022/03/19 02:02:30;;;;;;;32.10;26.13;;;4.40;99.90;;;;;;5070113;28;20190;-75
2022/03/19 02:04:59;;;;;;;33.67;24.00;;;4.50;99.90;;;;;;5068516;28;20209;-75
2022/03/19 02:07:24;;;;;;;34.67;27.53;;;4.50;99.90;;;;;;5067930;28;20207;-76
2022/03/19 02:09:50;;;;;;;36.63;27.57;;;4.40;99.90;;;;;;5069911;28;20240;-75
2022/03/19 02:12:16;;;;;;;33.17;24.87;;;4.40;99.90;;;;;;5069674;28;20543;-75
2022/03/19 02:14:44;;;;;;;36.60;29.40;;;4.40;99.90;;;;;;5067632;28;20202;-75
2022/03/19 02:17:10;;;;;;;32.57;25.63;;;4.40;99.90;;;;;;5069867;28;20217;-75
2022/03/19 02:19:50;;;;;;;35.73;24.90;;;4.40;99.90;;;;;;5069956;28;20175;-75
2022/03/19 02:22:17;;;;;;;29.60;22.97;;;4.30;99.90;;;;;;5068760;28;20183;-75
2022/03/19 02:27:27;;;;;;;28.60;21.57;;;4.30;99.90;;;;;;5072829;28;20297;-74
2022/03/19 02:29:53;;;;;;;27.10;21.10;;;4.40;99.90;;;;;;5069783;28;20250;-75
2022/03/19 02:32:18;;;;;;;29.57;23.13;;;4.40;99.90;;;;;;5069133;28;20233;-75
2022/03/19 02:34:44;;;;;;;26.87;20.93;;;4.40;99.90;;;;;;5070588;28;20697;-75
2022/03/19 02:37:10;;;;;;;30.63;22.17;;;4.40;99.90;;;;;;5070068;28;20256;-75
2022/03/19 02:39:35;;;;;;;25.87;20.93;;;4.40;99.90;;;;;;5070676;28;20180;-75
2022/03/19 02:42:07;;;;;;;33.57;24.47;;;4.40;99.90;;;;;;5071538;28;20183;-75
2022/03/19 02:44:34;;;;;;;32.17;24.43;;;4.40;99.90;;;;;;5070468;28;20700;-75
2022/03/19 02:47:03;;;;;;;30.77;24.23;;;4.30;99.90;;;;;;5066025;28;20172;-75
2022/03/19 02:49:28;;;;;;;27.93;23.43;;;4.30;99.90;;;;;;5069016;28;20190;-75
2022/03/19 02:51:55;;;;;;;32.80;25.13;;;4.30;99.90;;;;;;5069625;28;20180;-75
2022/03/19 02:54:25;;;;;;;36.97;26.97;;;4.20;99.90;;;;;;5086430;28;20248;-75
2022/03/19 02:56:51;;;;;;;34.40;25.67;;;4.10;99.90;;;;;;5061055;28;20179;-75
2022/03/19 02:59:20;;;;;;;32.23;25.00;;;4.10;99.90;;;;;;5069159;28;20187;-75
2022/03/19 03:01:54;;;;;;;28.93;23.13;;;4.00;99.90;;;;;;5068949;28;20198;-76
2022/03/19 03:04:20;;;;;;;31.03;24.23;;;4.00;99.90;;;;;;5068034;28;20264;-76
2022/03/19 03:06:48;;;;;;;31.13;23.87;;;4.00;99.90;;;;;;5064100;28;20237;-76
2022/03/19 03:09:18;;;;;;;32.93;23.93;;;3.90;99.90;;;;;;5070872;28;20668;-75
2022/03/19 03:11:44;;;;;;;32.03;23.73;;;3.90;99.90;;;;;;5063313;28;20183;-74
2022/03/19 03:14:10;;;;;;;34.13;24.37;;;3.90;99.90;;;;;;5075854;28;20199;-74
2022/03/19 03:16:37;;;;;;;30.70;23.63;;;3.90;99.90;;;;;;5070850;28;21198;-75
2022/03/19 03:19:06;;;;;;;28.87;22.73;;;3.90;99.90;;;;;;5073211;28;20182;-75
2022/03/19 03:21:36;;;;;;;29.67;23.53;;;3.80;99.90;;;;;;5068589;28;20172;-76
2022/03/19 03:24:03;;;;;;;31.53;23.97;;;3.90;99.90;;;;;;5065373;28;20199;-75
2022/03/19 03:26:30;;;;;;;31.17;22.40;;;3.90;99.90;;;;;;5071446;28;20214;-75
2022/03/19 03:28:56;;;;;;;29.17;23.63;;;3.90;99.90;;;;;;5067534;28;20233;-75
2022/03/19 03:31:22;;;;;;;30.87;24.13;;;3.90;99.90;;;;;;5069682;28;20176;-76
2022/03/19 03:33:49;;;;;;;32.43;23.20;;;3.90;99.90;;;;;;5071831;28;20191;-76
2022/03/19 03:36:15;;;;;;;29.17;23.17;;;3.80;99.90;;;;;;5063763;28;20689;-76
2022/03/19 03:38:41;;;;;;;31.67;22.47;;;3.80;99.90;;;;;;5067476;28;20260;-76
2022/03/19 03:41:07;;;;;;;29.53;24.17;;;3.80;99.90;;;;;;5068304;28;20222;-76
2022/03/19 03:43:32;;;;;;;32.93;23.47;;;3.80;99.90;;;;;;5070953;28;20624;-76
2022/03/19 03:45:58;;;;;;;31.00;22.57;;;3.70;99.90;;;;;;5076725;28;20297;-75
2022/03/19 03:48:24;;;;;;;29.27;23.17;;;3.70;99.90;;;;;;5076630;28;20183;-75
2022/03/19 03:50:52;;;;;;;31.00;22.80;;;3.70;99.90;;;;;;5085660;28;20646;-75
2022/03/19 03:53:18;;;;;;;31.03;23.40;;;3.70;99.90;;;;;;5070821;28;20183;-75
2022/03/19 03:55:44;;;;;;;29.57;22.30;;;3.70;99.90;;;;;;5066450;28;20292;-74
2022/03/19 03:58:11;;;;;;;33.43;23.93;;;3.70;99.90;;;;;;5068117;28;20190;-75
2022/03/19 04:00:36;;;;;;;32.73;24.00;;;3.70;99.90;;;;;;5066493;28;20558;-75
2022/03/19 04:03:03;;;;;;;29.77;22.50;;;3.70;99.90;;;;;;5067006;28;20186;-75
2022/03/19 04:05:30;;;;;;;31.23;23.07;;;3.70;99.90;;;;;;5064048;28;20195;-74
2022/03/19 04:07:55;;;;;;;29.50;22.53;;;3.70;99.90;;;;;;5071534;28;20536;-74
2022/03/19 04:10:21;;;;;;;35.50;25.77;;;3.70;99.90;;;;;;5065905;28;20175;-73
2022/03/19 04:12:47;;;;;;;32.57;24.87;;;3.60;99.90;;;;;;5060336;28;20182;-73
2022/03/19 04:15:12;;;;;;;31.30;25.43;;;3.50;99.90;;;;;;5056276;28;20198;-73
2022/03/19 04:17:40;;;;;;;33.87;25.93;;;3.40;99.90;;;;;;5066742;28;20202;-72
2022/03/19 04:20:07;;;;;;;36.20;27.77;;;3.30;99.90;;;;;;5064222;28;20622;-73
2022/03/19 04:22:40;;;;;;;40.53;29.10;;;3.20;99.90;;;;;;5067426;28;20179;-72
2022/03/19 04:25:26;;;;;;;35.27;26.53;;;3.10;99.90;;;;;;5069379;28;20198;-73
2022/03/19 04:27:54;;;;;;;43.50;29.77;;;3.00;99.90;;;;;;5066703;28;20199;-73
2022/03/19 04:30:23;;;;;;;37.77;28.40;;;3.00;99.90;;;;;;5065874;28;20662;-73
2022/03/19 04:32:54;;;;;;;40.43;29.07;;;2.90;99.90;;;;;;5065280;28;20195;-72
2022/03/19 04:38:09;;;;;;;39.43;28.93;;;2.80;99.90;;;;;;5067776;28;20186;-72
2022/03/19 04:40:36;;;;;;;39.20;28.57;;;2.80;99.90;;;;;;5065094;28;20697;-73
2022/03/19 04:43:02;;;;;;;40.17;28.37;;;2.70;99.90;;;;;;5067769;28;20239;-72
2022/03/19 04:45:28;;;;;;;36.60;28.00;;;2.70;99.90;;;;;;5065321;28;20333;-72
2022/03/19 04:47:53;;;;;;;37.50;27.17;;;2.60;99.90;;;;;;5067613;28;20179;-72
2022/03/19 04:50:20;;;;;;;38.13;27.00;;;2.60;99.90;;;;;;5080662;28;20245;-73
2022/03/19 04:52:47;;;;;;;41.53;28.73;;;2.50;99.90;;;;;;5067886;28;20402;-73
2022/03/19 04:55:13;;;;;;;40.00;28.83;;;2.60;99.90;;;;;;5064669;28;20622;-73
2022/03/19 04:57:39;;;;;;;35.03;28.03;;;2.50;99.90;;;;;;5063716;28;20194;-72
2022/03/19 05:00:08;;;;;;;36.10;27.43;;;2.50;99.90;;;;;;5068925;28;20175;-72
2022/03/19 05:02:34;;;;;;;36.83;27.37;;;2.40;99.90;;;;;;5078825;28;20677;-73
2022/03/19 05:05:00;;;;;;;36.77;28.23;;;2.40;99.90;;;;;;5066764;28;20229;-73
2022/03/19 05:07:27;;;;;;;39.77;27.93;;;2.30;99.90;;;;;;5064540;28;20168;-72
2022/03/19 05:12:41;;;;;;;37.50;27.50;;;2.30;99.90;;;;;;5073550;28;20244;-74
2022/03/19 05:15:10;;;;;;;34.03;26.77;;;2.30;99.90;;;;;;5072020;28;20202;-74
2022/03/19 05:17:36;;;;;;;37.20;26.53;;;2.30;99.90;;;;;;5073524;28;20180;-73
2022/03/19 05:20:03;;;;;;;34.93;26.40;;;2.30;99.90;;;;;;5071119;28;20797;-74
2022/03/19 05:22:31;;;;;;;35.80;27.33;;;2.30;99.90;;;;;;5071698;28;20211;-73
2022/03/19 05:24:58;;;;;;;34.20;25.90;;;2.20;99.90;;;;;;5071871;28;20747;-72
2022/03/19 05:27:24;;;;;;;36.43;26.47;;;2.20;99.90;;;;;;5068607;28;20182;-73
2022/03/19 05:29:50;;;;;;;34.63;26.10;;;2.10;99.90;;;;;;5069157;28;20199;-75
2022/03/19 05:32:16;;;;;;;39.17;28.97;;;2.10;99.90;;;;;;5065553;28;20218;-73
2022/03/19 05:34:42;;;;;;;41.77;30.63;;;2.10;99.90;;;;;;5073606;28;20195;-73
2022/03/19 05:37:09;;;;;;;38.07;29.13;;;2.00;99.90;;;;;;5069553;28;20659;-72
2022/03/19 05:39:36;;;;;;;36.03;29.10;;;2.00;99.90;;;;;;5069918;28;20258;-71
2022/03/19 05:42:02;;;;;;;36.20;27.50;;;2.10;99.90;;;;;;5066823;28;20187;-72
2022/03/19 05:44:27;;;;;;;37.67;27.23;;;2.10;99.90;;;;;;5068280;28;20228;-72
2022/03/19 05:46:53;;;;;;;39.20;27.97;;;2.20;99.90;;;;;;5067817;28;20243;-73
2022/03/19 05:49:19;;;;;;;37.43;26.43;;;2.30;99.90;;;;;;5067387;28;20191;-72
2022/03/19 05:51:44;;;;;;;35.63;26.63;;;2.30;99.90;;;;;;5069471;28;20186;-72
2022/03/19 05:54:10;;;;;;;36.23;27.40;;;2.40;99.90;;;;;;5066678;28;20198;-72
2022/03/19 05:56:37;;;;;;;39.93;26.63;;;2.40;99.90;;;;;;5064525;28;21143;-72
2022/03/19 05:59:03;;;;;;;36.97;27.53;;;2.40;99.90;;;;;;5064671;28;20183;-72
2022/03/19 06:01:29;;;;;;;30.97;25.70;;;2.40;99.90;;;;;;5061552;28;20183;-71
2022/03/19 06:03:56;;;;;;;33.20;25.40;;;2.50;99.90;;;;;;5067195;28;20680;-72
2022/03/19 06:06:23;;;;;;;35.77;27.70;;;2.60;99.90;;;;;;5062608;28;20256;-72
2022/03/19 06:08:48;;;;;;;34.63;26.67;;;2.70;99.90;;;;;;5071702;28;20175;-72
2022/03/19 06:11:14;;;;;;;31.47;25.50;;;2.80;99.90;;;;;;5062786;28;20184;-72
2022/03/19 06:13:40;;;;;;;34.53;25.77;;;2.80;99.90;;;;;;5064803;28;20195;-72
2022/03/19 06:16:06;;;;;;;34.30;25.87;;;2.90;99.90;;;;;;5060881;28;20188;-71
2022/03/19 06:18:31;;;;;;;32.90;22.97;;;3.00;99.90;;;;;;5065986;28;20609;-71
2022/03/19 06:20:57;;;;;;;32.60;24.13;;;3.10;99.90;;;;;;5065144;28;20266;-71
2022/03/19 06:23:23;;;;;;;37.03;25.93;;;3.20;99.90;;;;;;5062958;28;20176;-71
2022/03/19 06:25:49;;;;;;;35.20;24.13;;;3.30;99.90;;;;;;5065181;28;20199;-71
2022/03/19 06:28:16;;;;;;;37.00;27.20;;;3.40;99.90;;;;;;5061690;28;20172;-72
2022/03/19 06:30:42;;;;;;;34.63;26.60;;;3.50;99.90;;;;;;5064460;28;20522;-71
2022/03/19 06:33:07;;;;;;;39.80;27.17;;;3.50;99.90;;;;;;5067783;28;20217;-71
2022/03/19 06:38:18;;;;;;;29.13;23.83;;;3.60;99.90;;;;;;5063997;28;20214;-73
2022/03/19 06:40:44;;;;;;;30.80;23.80;;;3.70;99.90;;;;;;5062953;28;20219;-73
2022/03/19 06:43:10;;;;;;;33.40;25.03;;;3.80;99.90;;;;;;5073396;28;20184;-72
2022/03/19 06:45:37;;;;;;;29.70;23.60;;;4.00;99.90;;;;;;5070831;28;20195;-72
2022/03/19 06:48:03;;;;;;;28.60;23.57;;;4.10;99.90;;;;;;5065619;28;20167;-72
2022/03/19 06:50:28;;;;;;;32.70;23.70;;;4.30;99.90;;;;;;5068026;28;20180;-73
2022/03/19 06:52:54;;;;;;;30.00;23.83;;;4.30;99.90;;;;;;5069272;28;20574;-74
2022/03/19 06:55:19;;;;;;;29.93;24.27;;;4.40;99.90;;;;;;5068542;28;20244;-74
2022/03/19 06:57:45;;;;;;;28.80;23.97;;;4.40;99.90;;;;;;5068365;28;20214;-72
2022/03/19 07:00:11;;;;;;;29.53;22.37;;;4.40;99.90;;;;;;5067807;28;20244;-73
2022/03/19 07:02:51;;;;;;;30.60;22.90;;;4.40;99.90;;;;;;5073463;28;20608;-73
2022/03/19 07:05:27;;;;;;;30.67;23.60;;;4.50;99.90;;;;;;5072761;28;20203;-72
2022/03/19 07:07:54;;;;;;;29.37;23.00;;;4.60;99.90;;;;;;5066916;28;20201;-73
2022/03/19 07:10:21;;;;;;;28.00;22.77;;;4.60;99.90;;;;;;5065136;28;20215;-73
2022/03/19 07:12:48;;;;;;;32.23;22.67;;;4.60;99.90;;;;;;5068949;28;20511;-73
2022/03/19 07:15:19;;;;;;;30.67;23.20;;;4.60;99.90;;;;;;5065074;28;20215;-74
2022/03/19 07:17:46;;;;;;;28.07;22.20;;;4.70;99.90;;;;;;5065544;28;20183;-75
2022/03/19 07:20:14;;;;;;;28.97;23.13;;;4.70;99.90;;;;;;5068717;28;20265;-75
2022/03/19 07:23:00;;;;;;;30.40;23.60;;;4.80;99.90;;;;;;5068799;28;20210;-75
2022/03/19 07:25:44;;;;;;;29.70;22.73;;;4.90;99.90;;;;;;5065497;28;20207;-74
2022/03/19 07:28:13;;;;;;;29.43;22.77;;;4.90;99.90;;;;;;5068703;28;20171;-74
2022/03/19 07:30:39;;;;;;;28.60;22.50;;;5.00;99.90;;;;;;5065605;28;20171;-75
2022/03/19 07:33:05;;;;;;;26.83;22.67;;;5.00;99.90;;;;;;5065436;28;20225;-75
2022/03/19 07:35:31;;;;;;;30.27;22.47;;;5.10;99.90;;;;;;5069471;28;20202;-75
2022/03/19 07:38:02;;;;;;;27.10;21.53;;;5.20;99.90;;;;;;5066592;28;20179;-75
2022/03/19 07:43:13;;;;;;;32.37;22.67;;;5.50;99.90;;;;;;5069516;28;20221;-72
2022/03/19 07:45:42;;;;;;;29.17;22.27;;;5.50;99.90;;;;;;5065524;28;20544;-71
2022/03/19 07:48:09;;;;;;;26.47;19.57;;;5.60;99.90;;;;;;5066087;28;20262;-72
2022/03/19 07:50:36;;;;;;;25.63;20.83;;;5.70;99.90;;;;;;5067341;28;20181;-72
2022/03/19 07:53:02;;;;;;;29.30;21.57;;;5.80;99.90;;;;;;5066802;28;20260;-72
2022/03/19 07:55:27;;;;;;;22.97;20.37;;;5.90;99.90;;;;;;5067620;28;20203;-72
2022/03/19 07:57:53;;;;;;;24.30;19.70;;;5.90;99.90;;;;;;5063401;28;20237;-72
2022/03/19 08:00:19;;;;;;;21.67;17.77;;;6.00;99.90;;;;;;5059232;28;20176;-73
2022/03/19 08:02:45;;;;;;;21.83;17.77;;;6.10;99.90;;;;;;5061031;28;20179;-73
2022/03/19 08:05:12;;;;;;;24.00;17.60;;;6.20;99.90;;;;;;5070503;28;20696;-73
2022/03/19 08:07:38;;;;;;;22.47;18.07;;;6.30;99.90;;;;;;5062650;28;20178;-73
2022/03/19 08:10:05;;;;;;;24.13;17.63;;;6.30;99.90;;;;;;5058317;28;20186;-73
2022/03/19 08:12:31;;;;;;;21.57;17.53;;;6.40;99.90;;;;;;5063589;28;20195;-73
2022/03/19 08:14:59;;;;;;;22.93;17.03;;;6.50;99.90;;;;;;5060687;28;20203;-73
2022/03/19 08:17:26;;;;;;;20.97;17.07;;;6.60;99.90;;;;;;5064398;28;20199;-73
2022/03/19 08:19:52;;;;;;;24.80;17.90;;;6.60;99.90;;;;;;5061663;28;20673;-73
2022/03/19 08:22:18;;;;;;;20.43;16.63;;;6.70;99.90;;;;;;5068469;28;20184;-73
2022/03/19 08:24:45;;;;;;;22.10;17.23;;;6.90;99.90;;;;;;5065161;28;20277;-72
2022/03/19 08:27:10;;;;;;;21.30;15.82;;;6.90;99.90;;;;;;5067487;28;20195;-72
2022/03/19 08:29:36;;;;;;;21.77;16.48;;;7.00;99.90;;;;;;5065812;28;20189;-72
2022/03/19 08:32:02;;;;;;;21.92;17.70;;;7.10;99.90;;;;;;5063468;28;20199;-74
2022/03/19 08:34:27;;;;;;;19.88;15.93;;;7.20;99.90;;;;;;5076725;28;20253;-73
2022/03/19 08:36:54;;;;;;;19.75;16.42;;;7.40;99.90;;;;;;5073536;28;20215;-73
2022/03/19 08:42:05;;;;;;;24.52;16.73;;;7.60;99.90;;;;;;5067359;28;20193;-73
2022/03/19 08:44:30;;;;;;;18.30;16.00;;;7.70;99.90;;;;;;5069786;28;20208;-73
2022/03/19 08:46:56;;;;;;;22.02;16.13;;;7.90;99.90;;;;;;5073793;28;20217;-73
2022/03/19 08:49:21;;;;;;;18.88;15.43;;;8.10;99.90;;;;;;5066921;28;20309;-73
2022/03/19 08:51:47;;;;;;;17.48;14.40;;;8.30;99.90;;;;;;5075293;28;20637;-73
2022/03/19 08:54:20;;;;;;;18.80;14.43;;;8.50;98.80;;;;;;5071585;28;20203;-72
2022/03/19 08:56:48;;;;;;;18.80;14.48;;;8.80;97.20;;;;;;5071257;28;20175;-72
2022/03/19 08:59:16;;;;;;;18.52;13.35;;;9.60;94.10;;;;;;5068504;28;20235;-72
2022/03/19 09:01:43;;;;;;;16.85;12.68;;;11.20;86.70;;;;;;5062920;28;20175;-75
2022/03/19 09:04:09;;;;;;;16.92;13.27;;;13.30;72.60;;;;;;5065445;28;20195;-73
2022/03/19 09:06:35;;;;;;;14.85;12.68;;;15.10;60.30;;;;;;5068419;28;20199;-72
2022/03/19 09:09:03;;;;;;;14.68;12.65;;;16.20;55.50;;;;;;5068676;28;20268;-73
2022/03/19 09:11:30;;;;;;;14.10;11.98;;;16.90;51.90;;;;;;5068490;28;20171;-73
2022/03/19 09:13:56;;;;;;;15.82;12.63;;;17.10;51.50;;;;;;5065485;28;20192;-72
2022/03/19 09:16:24;;;;;;;17.30;12.77;;;17.60;50.00;;;;;;5063146;28;20244;-73
2022/03/19 09:18:51;;;;;;;13.77;12.32;;;17.50;48.70;;;;;;5068998;28;20180;-73
2022/03/19 09:21:17;;;;;;;14.40;12.55;;;16.70;48.80;;;;;;5065732;28;20188;-73
2022/03/19 09:23:49;;;;;;;15.13;13.60;;;16.10;49.90;;;;;;5065395;28;20288;-73
2022/03/19 09:26:18;;;;;;;16.42;13.55;;;16.60;50.00;;;;;;5064857;28;20213;-73
2022/03/19 09:28:48;;;;;;;15.10;13.30;;;17.70;49.50;;;;;;5061853;28;20248;-73
2022/03/19 09:31:16;;;;;;;17.63;14.25;;;18.90;47.40;;;;;;5065680;28;20175;-73
2022/03/19 09:33:43;;;;;;;16.75;14.73;;;19.20;47.30;;;;;;5071765;28;20202;-73
2022/03/19 09:36:08;;;;;;;18.52;13.88;;;20.50;46.30;;;;;;5059781;28;20188;-73
2022/03/19 09:38:34;;;;;;;16.67;13.75;;;21.60;44.60;;;;;;5068875;28;20267;-73
2022/03/19 09:41:00;;;;;;;16.38;14.60;;;22.80;43.00;;;;;;5069284;28;20206;-74
2022/03/19 09:43:28;;;;;;;15.60;13.45;;;22.50;42.20;;;;;;5067385;28;20190;-73
2022/03/19 09:45:54;;;;;;;16.25;14.68;;;23.10;41.60;;;;;;5065238;28;20210;-73
2022/03/19 09:48:20;;;;;;;17.25;14.75;;;23.90;40.70;;;;;;5062052;28;20187;-73
2022/03/19 09:51:03;;;;;;;18.05;15.38;;;24.60;39.00;;;;;;5068638;28;20177;-73
2022/03/19 09:53:33;;;;;;;19.45;15.68;;;24.70;38.40;;;;;;5064703;28;20611;-76
2022/03/19 09:55:59;;;;;;;17.25;14.70;;;23.70;39.50;;;;;;5070722;28;20190;-77
2022/03/19 09:58:25;;;;;;;16.05;14.38;;;24.20;38.00;;;;;;5066206;28;20180;-77
2022/03/19 10:00:51;;;;;;;15.65;14.05;;;24.40;37.70;;;;;;5068465;28;20206;-77
2022/03/19 10:03:22;;;;;;;16.52;14.88;;;25.00;37.40;;;;;;5064568;28;20650;-77
2022/03/19 10:08:39;;;;;;;17.65;14.82;;;25.00;36.60;;;;;;5068606;28;20312;-77
2022/03/19 10:11:13;;;;;;;17.50;15.75;;;24.90;36.60;;;;;;5065404;28;20171;-76
2022/03/19 10:13:42;;;;;;;17.50;14.85;;;24.40;36.20;;;;;;5063828;28;20344;-77
2022/03/19 10:16:08;;;;;;;15.40;13.88;;;24.40;36.40;;;;;;5067706;28;20203;-77
2022/03/19 10:18:34;;;;;;;16.38;14.68;;;24.60;36.60;;;;;;5062327;28;20190;-77
2022/03/19 10:21:02;;;;;;;16.58;14.80;;;25.20;37.00;;;;;;5078230;28;20194;-77
2022/03/19 10:23:34;;;;;;;15.05;13.60;;;25.70;35.50;;;;;;5066237;28;20180;-77
2022/03/19 10:26:00;;;;;;;14.73;13.23;;;26.20;34.70;;;;;;5030618;28;1129556;-77
2022/03/19 10:28:31;;;;;;;14.75;13.25;;;26.70;34.00;;;;;;5067894;28;20194;-76
2022/03/19 10:30:57;;;;;;;15.07;13.48;;;26.70;33.80;;;;;;5067740;28;20191;-77
2022/03/19 10:33:31;;;;;;;15.85;14.25;;;26.30;34.00;;;;;;5060470;28;20590;-78
2022/03/19 10:36:08;;;;;;;16.08;14.48;;;26.70;34.30;;;;;;5067227;28;20188;-77
2022/03/19 10:38:42;;;;;;;15.45;13.85;;;27.30;32.50;;;;;;5063905;28;20592;-77
2022/03/19 10:41:08;;;;;;;15.02;12.90;;;26.70;33.20;;;;;;5063948;28;20174;-77
2022/03/19 10:43:34;;;;;;;14.30;12.90;;;27.20;31.90;;;;;;5066443;28;20211;-77
2022/03/19 10:46:03;;;;;;;15.60;13.75;;;27.40;31.90;;;;;;5070126;28;20211;-76
2022/03/19 10:48:30;;;;;;;15.63;14.02;;;27.70;31.90;;;;;;5064251;28;20180;-77
2022/03/19 10:50:57;;;;;;;14.02;12.73;;;27.10;30.80;;;;;;5064099;28;20175;-77
2022/03/19 10:53:24;;;;;;;13.80;12.60;;;26.80;30.90;;;;;;5063861;28;20180;-76
2022/03/19 10:55:51;;;;;;;13.80;12.50;;;26.90;31.10;;;;;;5065114;28;20186;-76
2022/03/19 10:58:17;;;;;;;15.88;13.52;;;26.00;31.40;;;;;;5063136;28;20266;-76
2022/03/19 11:00:48;;;;;;;13.32;12.02;;;26.10;31.90;;;;;;5068712;28;20262;-76
2022/03/19 11:03:38;;;;;;;14.23;12.93;;;26.90;31.80;;;;;;5065578;28;20713;-78
2022/03/19 11:06:06;;;;;;;13.82;12.52;;;27.50;30.70;;;;;;5071497;28;20291;-76
2022/03/19 11:08:46;;;;;;;13.98;12.68;;;26.40;31.70;;;;;;5065323;28;20180;-76
2022/03/19 11:11:53;;;;;;;15.30;13.77;;;24.60;32.20;;;;;;5069787;28;20184;-76
2022/03/19 11:14:24;;;;;;;14.30;12.80;;;22.50;34.90;;;;;;5045385;28;20203;-76
2022/03/19 11:17:27;;;;;;;15.70;13.35;;;21.80;35.90;;;;;;5067710;28;20198;-77
2022/03/19 11:19:56;;;;;;;13.88;12.57;;;20.80;36.30;;;;;;5050729;28;20272;-77
2022/03/19 11:22:22;;;;;;;14.07;12.77;;;22.00;36.90;;;;;;5068156;28;20182;-78
2022/03/19 11:25:26;;;;;;;14.35;12.98;;;24.10;35.10;;;;;;5067465;28;20248;-77
2022/03/19 11:27:55;;;;;;;14.07;12.68;;;26.40;32.80;;;;;;5065812;28;20674;-76
2022/03/19 11:30:25;;;;;;;13.63;12.43;;;27.50;31.50;;;;;;5067886;28;20187;-75
2022/03/19 11:33:00;;;;;;;12.95;11.85;;;28.40;30.20;;;;;;5068450;28;20187;-75
2022/03/19 11:35:27;;;;;;;14.15;12.75;;;28.20;30.00;;;;;;5071718;28;20277;-76
2022/03/19 11:38:13;;;;;;;14.25;12.82;;;28.40;30.10;;;;;;5067988;28;20222;-75
2022/03/19 11:40:45;;;;;;;14.57;12.95;;;27.90;30.40;;;;;;5070207;28;20175;-76
2022/03/19 11:43:16;;;;;;;14.27;13.07;;;26.50;31.70;;;;;;5063551;28;20233;-76
2022/03/19 11:45:54;;;;;;;16.90;13.48;;;25.50;31.60;;;;;;5065679;28;20195;-76
2022/03/19 11:48:37;;;;;;;15.32;13.70;;;24.80;33.10;;;;;;5063280;28;20168;-75
2022/03/19 11:51:22;;;;;;;15.20;13.70;;;25.00;33.90;;;;;;5066527;28;20179;-75
2022/03/19 11:54:04;;;;;;;14.98;13.45;;;26.60;33.00;;;;;;5077886;28;20195;-75
2022/03/19 11:56:38;;;;;;;15.43;13.05;;;28.10;31.60;;;;;;5067422;28;20187;-75
2022/03/19 11:59:06;;;;;;;14.43;13.02;;;29.00;30.70;;;;;;5069754;28;20689;-76
2022/03/19 12:01:49;;;;;;;20.98;13.25;;;29.30;30.00;;;;;;5065894;28;20185;-75
2022/03/19 12:04:17;;;;;;;14.93;13.50;;;29.10;30.00;;;;;;5064444;28;20612;-75
2022/03/19 12:06:53;;;;;;;14.95;13.55;;;29.30;29.80;;;;;;5060924;28;20191;-75
2022/03/19 12:09:31;;;;;;;14.27;12.90;;;29.70;30.20;;;;;;5067211;28;20181;-75
2022/03/19 12:12:28;;;;;;;14.20;12.93;;;30.60;29.80;;;;;;5061022;28;20205;-75
2022/03/19 12:14:56;;;;;;;15.98;13.13;;;30.60;28.80;;;;;;5045114;28;20219;-75
2022/03/19 12:17:26;;;;;;;13.98;11.40;;;29.20;29.60;;;;;;5064094;28;20175;-76
2022/03/19 12:20:07;;;;;;;14.50;13.02;;;28.80;30.00;;;;;;5085245;28;20633;-77
2022/03/19 12:22:39;;;;;;;16.80;13.05;;;27.40;30.30;;;;;;5061105;28;20183;-76
2022/03/19 12:25:33;;;;;;;15.30;13.65;;;26.40;31.90;;;;;;5068823;28;20202;-76
2022/03/19 12:27:59;;;;;;;14.88;13.35;;;24.70;33.10;;;;;;5064905;28;20662;-77
2022/03/19 12:30:25;;;;;;;15.25;13.90;;;23.60;33.80;;;;;;5069078;28;20270;-77
2022/03/19 12:32:56;;;;;;;16.35;14.95;;;24.10;34.30;;;;;;5066866;28;20179;-77
2022/03/19 12:35:22;;;;;;;15.43;13.95;;;24.40;33.70;;;;;;5064787;28;20609;-77
2022/03/19 12:37:55;;;;;;;18.92;14.52;;;24.60;33.30;;;;;;5064116;28;20175;-76
2022/03/19 12:40:25;;;;;;;15.13;13.52;;;25.30;33.20;;;;;;5067072;28;20188;-76
2022/03/19 12:42:57;;;;;;;15.07;13.57;;;26.10;33.80;;;;;;5068039;28;20201;-77
2022/03/19 12:45:40;;;;;;;14.30;12.90;;;27.00;31.80;;;;;;5069156;28;20226;-75
2022/03/19 12:48:13;;;;;;;14.63;13.07;;;27.10;30.80;;;;;;5068538;28;20654;-75
2022/03/19 12:50:46;;;;;;;14.45;13.00;;;26.80;31.00;;;;;;5067715;28;20270;-79
2022/03/19 12:53:12;;;;;;;14.07;12.75;;;26.80;32.90;;;;;;5059706;28;20170;-81
2022/03/19 12:55:37;;;;;;;14.07;12.68;;;27.00;31.10;;;;;;5069036;28;20194;-78
2022/03/19 12:58:03;;;;;;;14.30;12.80;;;26.70;31.20;;;;;;5065886;28;20195;-78